Time;durP1;ratioP1;P1;durP2;ratioP2;P2;SDS_P1;SDS_P2;PMS_P1;PMS_P2;Temp;Humidity;BMP_temperature;BMP_pressure;BME280_temperature;BME280_humidity;BME280_pressure;Samples;Min_cycle;Max_cycle;Signal;HPM_P1;HPM_P2
2021/09/08 00:00:46;;;;;;;10.38;2.67;;;;;;;;;;5010043;28;20520;-79
2021/09/08 00:03:13;;;;;;;2.95;2.72;;;;;;;;;;5025552;28;20422;-79
2021/09/08 00:05:40;;;;;;;2.35;2.25;;;;;;;;;;5024263;28;20469;-79
2021/09/08 00:08:07;;;;;;;2.85;2.75;;;;;;;;;;5057993;28;20466;-79
2021/09/08 00:10:34;;;;;;;3.83;2.60;;;;;;;;;;5025496;28;20084;-79
2021/09/08 00:13:00;;;;;;;1.95;1.70;;;;;;;;;;5027198;28;20422;-79
2021/09/08 00:15:27;;;;;;;2.53;2.33;;;;;;;;;;5025039;28;20271;-79
2021/09/08 00:17:54;;;;;;;1.77;1.67;;;;;;;;;;5014350;28;20091;-79
2021/09/08 00:20:21;;;;;;;2.20;2.10;;;;;;;;;;5025008;28;20535;-79
2021/09/08 00:22:47;;;;;;;2.88;2.25;;;;;;;;;;5024385;28;20566;-79
2021/09/08 00:25:15;;;;;;;5.68;2.85;;;;;;;;;;5027863;28;20041;-79
2021/09/08 00:27:42;;;;;;;9.52;3.10;;;;;;;;;;5026521;28;20037;-79
2021/09/08 00:30:09;;;;;;;2.22;2.13;;;;;;;;;;5025656;28;20113;-79
2021/09/08 00:32:36;;;;;;;3.65;2.10;;;;;;;;;;5029832;28;20037;-79
2021/09/08 00:35:03;;;;;;;2.08;1.98;;;;;;;;;;5029024;28;20438;-79
2021/09/08 00:37:31;;;;;;;2.28;2.08;;;;;;;;;;5030420;28;20041;-79
2021/09/08 00:39:58;;;;;;;2.50;2.40;;;;;;;;;;5042467;28;20061;-79
2021/09/08 00:42:24;;;;;;;1.80;1.70;;;;;;;;;;5030231;28;20123;-79
2021/09/08 00:44:51;;;;;;;2.25;2.15;;;;;;;;;;5030363;28;20405;-79
2021/09/08 00:47:18;;;;;;;2.28;1.95;;;;;;;;;;5024187;28;20041;-79
2021/09/08 00:49:45;;;;;;;1.90;1.80;;;;;;;;;;5029997;28;20045;-79
2021/09/08 00:52:13;;;;;;;2.17;2.08;;;;;;;;;;5027679;28;20040;-79
2021/09/08 00:54:40;;;;;;;2.85;2.00;;;;;;;;;;5029798;28;20484;-79
2021/09/08 00:57:08;;;;;;;2.33;2.20;;;;;;;;;;5029927;28;20045;-79
2021/09/08 00:59:35;;;;;;;2.45;2.35;;;;;;;;;;5027779;28;20486;-79
2021/09/08 01:02:04;;;;;;;4.38;1.60;;;;;;;;;;5021279;28;20434;-79
2021/09/08 01:04:32;;;;;;;2.38;2.17;;;;;;;;;;5057972;28;20037;-79
2021/09/08 01:07:03;;;;;;;3.40;1.88;;;;;;;;;;5028799;28;20033;-79
2021/09/08 01:09:29;;;;;;;2.85;1.83;;;;;;;;;;5030658;28;20029;-79
2021/09/08 01:11:57;;;;;;;2.60;2.50;;;;;;;;;;5042467;28;20503;-79
2021/09/08 01:14:23;;;;;;;3.42;1.50;;;;;;;;;;5025194;28;20042;-79
2021/09/08 01:16:51;;;;;;;2.25;2.13;;;;;;;;;;5030284;28;20045;-79
2021/09/08 01:19:18;;;;;;;1.98;1.98;;;;;;;;;;5027817;28;20049;-79
2021/09/08 01:21:44;;;;;;;1.90;1.80;;;;;;;;;;5013043;28;20510;-79
2021/09/08 01:24:11;;;;;;;1.95;1.85;;;;;;;;;;5029437;28;20096;-79
2021/09/08 01:26:39;;;;;;;2.47;2.28;;;;;;;;;;5029526;28;20041;-79
2021/09/08 01:29:06;;;;;;;3.60;3.35;;;;;;;;;;5030127;28;20584;-79
2021/09/08 01:31:32;;;;;;;3.22;3.13;;;;;;;;;;5026320;28;20462;-79
2021/09/08 01:33:59;;;;;;;2.70;2.47;;;;;;;;;;5028636;28;20061;-79
2021/09/08 01:36:26;;;;;;;3.17;2.55;;;;;;;;;;5027064;28;20610;-79
2021/09/08 01:38:52;;;;;;;2.17;2.08;;;;;;;;;;5060398;28;20402;-79
2021/09/08 01:41:19;;;;;;;3.38;3.08;;;;;;;;;;5028887;28;20401;-79
2021/09/08 01:43:47;;;;;;;2.55;2.42;;;;;;;;;;5024957;28;20516;-79
2021/09/08 01:46:20;;;;;;;2.67;2.47;;;;;;;;;;5027514;28;20084;-79
2021/09/08 01:48:47;;;;;;;6.68;4.03;;;;;;;;;;5028335;28;20029;-79
2021/09/08 01:51:14;;;;;;;2.38;2.28;;;;;;;;;;5028183;28;20116;-79
2021/09/08 01:53:41;;;;;;;3.00;2.80;;;;;;;;;;5029708;28;20041;-79
2021/09/08 01:56:08;;;;;;;2.63;2.53;;;;;;;;;;5026812;28;20464;-79
2021/09/08 01:58:35;;;;;;;3.25;2.35;;;;;;;;;;5027819;28;20314;-79
2021/09/08 02:01:02;;;;;;;2.95;2.30;;;;;;;;;;5061323;28;20115;-79
2021/09/08 02:03:29;;;;;;;3.08;2.72;;;;;;;;;;5026359;28;20041;-79
2021/09/08 02:05:56;;;;;;;2.92;2.63;;;;;;;;;;5011080;28;20045;-79
2021/09/08 02:08:23;;;;;;;2.30;2.20;;;;;;;;;;5027193;28;20045;-79
2021/09/08 02:10:49;;;;;;;2.50;2.40;;;;;;;;;;5026229;28;20038;-79
2021/09/08 02:13:16;;;;;;;1.95;1.90;;;;;;;;;;5027322;28;20040;-79
2021/09/08 02:15:43;;;;;;;2.85;2.55;;;;;;;;;;5027280;28;20481;-79
2021/09/08 02:18:09;;;;;;;2.97;2.78;;;;;;;;;;5029377;28;20064;-79
2021/09/08 02:20:36;;;;;;;1.80;1.80;;;;;;;;;;5027227;28;20120;-79
2021/09/08 02:23:03;;;;;;;2.90;2.20;;;;;;;;;;5025627;28;20045;-79
2021/09/08 02:25:29;;;;;;;2.55;2.03;;;;;;;;;;5028667;28;20071;-79
2021/09/08 02:27:56;;;;;;;5.13;2.35;;;;;;;;;;5028858;28;20041;-79
2021/09/08 02:30:22;;;;;;;2.28;2.17;;;;;;;;;;5028143;28;20038;-79
2021/09/08 02:32:49;;;;;;;2.17;2.08;;;;;;;;;;5026833;28;20072;-79
2021/09/08 02:35:16;;;;;;;3.40;3.30;;;;;;;;;;5026709;28;20482;-79
2021/09/08 02:37:43;;;;;;;2.78;2.67;;;;;;;;;;5028683;28;20041;-79
2021/09/08 02:40:09;;;;;;;4.70;2.40;;;;;;;;;;5026388;28;20057;-79
2021/09/08 02:42:36;;;;;;;2.30;2.20;;;;;;;;;;5029558;28;20045;-79
2021/09/08 02:45:03;;;;;;;3.17;2.70;;;;;;;;;;5009806;28;20044;-79
2021/09/08 02:47:30;;;;;;;2.80;2.70;;;;;;;;;;5024766;28;20474;-79
2021/09/08 02:49:57;;;;;;;3.05;2.47;;;;;;;;;;5021619;28;20053;-79
2021/09/08 02:52:23;;;;;;;5.18;2.00;;;;;;;;;;5026603;28;20168;-79
2021/09/08 02:54:50;;;;;;;2.33;2.22;;;;;;;;;;5017218;28;20386;-79
2021/09/08 02:57:16;;;;;;;2.70;2.60;;;;;;;;;;5026325;28;20081;-79
2021/09/08 02:59:43;;;;;;;2.60;2.50;;;;;;;;;;5025926;28;20490;-79
2021/09/08 03:02:10;;;;;;;2.67;2.45;;;;;;;;;;5026928;28;20048;-79
2021/09/08 03:04:36;;;;;;;2.65;2.55;;;;;;;;;;5037090;28;20033;-79
2021/09/08 03:07:03;;;;;;;3.20;3.10;;;;;;;;;;5043274;28;20490;-79
2021/09/08 03:09:30;;;;;;;3.20;2.75;;;;;;;;;;5025516;28;20398;-79
2021/09/08 03:11:57;;;;;;;2.45;2.03;;;;;;;;;;5025974;28;20064;-79
2021/09/08 03:14:24;;;;;;;3.03;2.83;;;;;;;;;;5028547;28;20104;-79
2021/09/08 03:16:50;;;;;;;3.72;2.38;;;;;;;;;;5026762;28;20124;-79
2021/09/08 03:19:17;;;;;;;3.33;3.13;;;;;;;;;;5023627;28;20041;-79
2021/09/08 03:21:43;;;;;;;2.78;2.53;;;;;;;;;;5026752;28;20037;-79
2021/09/08 03:24:10;;;;;;;3.40;3.28;;;;;;;;;;5026243;28;20033;-79
2021/09/08 03:26:36;;;;;;;2.92;2.72;;;;;;;;;;5028840;28;20064;-79
2021/09/08 03:29:03;;;;;;;2.22;2.13;;;;;;;;;;5027078;28;20037;-79
2021/09/08 03:31:30;;;;;;;2.72;2.63;;;;;;;;;;5021203;28;20029;-79
2021/09/08 03:33:56;;;;;;;2.47;2.38;;;;;;;;;;5027333;28;20037;-79
2021/09/08 03:36:23;;;;;;;3.03;2.80;;;;;;;;;;5057337;28;20042;-79
2021/09/08 03:38:49;;;;;;;3.35;3.17;;;;;;;;;;5027647;28;20038;-79
2021/09/08 03:41:16;;;;;;;2.88;2.75;;;;;;;;;;5025544;28;20064;-79
2021/09/08 03:43:43;;;;;;;2.63;2.53;;;;;;;;;;5025490;28;20128;-79
2021/09/08 03:46:09;;;;;;;2.75;2.65;;;;;;;;;;5058657;28;20072;-79
2021/09/08 03:48:36;;;;;;;2.85;2.63;;;;;;;;;;5023871;28;20342;-79
2021/09/08 03:51:03;;;;;;;2.65;2.55;;;;;;;;;;5026713;28;20048;-79
2021/09/08 03:53:29;;;;;;;4.80;3.00;;;;;;;;;;5025168;28;20168;-79
2021/09/08 03:55:56;;;;;;;4.07;2.72;;;;;;;;;;5025113;28;20045;-79
2021/09/08 03:58:22;;;;;;;3.05;2.95;;;;;;;;;;5028277;28;20084;-79
2021/09/08 04:00:49;;;;;;;3.22;2.63;;;;;;;;;;5025210;28;20442;-79
2021/09/08 04:03:16;;;;;;;2.90;2.80;;;;;;;;;;5026283;28;20046;-79
2021/09/08 04:05:43;;;;;;;2.58;2.38;;;;;;;;;;5025141;28;20037;-79
2021/09/08 04:08:09;;;;;;;2.70;2.60;;;;;;;;;;5024520;28;20160;-79
2021/09/08 04:10:37;;;;;;;2.70;2.38;;;;;;;;;;5057947;28;20341;-79
2021/09/08 04:13:04;;;;;;;2.85;2.38;;;;;;;;;;5023423;28;20101;-79
2021/09/08 04:15:30;;;;;;;3.47;3.28;;;;;;;;;;5025815;28;20038;-79
2021/09/08 04:17:58;;;;;;;6.05;4.28;;;;;;;;;;5026616;28;20034;-79
2021/09/08 04:20:25;;;;;;;3.63;3.42;;;;;;;;;;5024685;28;20056;-79
2021/09/08 04:22:51;;;;;;;2.58;2.35;;;;;;;;;;5026177;28;20056;-79
2021/09/08 04:25:18;;;;;;;3.65;3.53;;;;;;;;;;5025303;28;20106;-79
2021/09/08 04:27:45;;;;;;;3.25;2.85;;;;;;;;;;5025750;28;20560;-79
2021/09/08 04:30:11;;;;;;;5.00;3.67;;;;;;;;;;5041015;28;20042;-79
2021/09/08 04:32:38;;;;;;;4.07;3.85;;;;;;;;;;5006643;28;20068;-79
2021/09/08 04:35:05;;;;;;;3.10;2.95;;;;;;;;;;5026054;28;20437;-79
2021/09/08 04:37:32;;;;;;;3.67;3.38;;;;;;;;;;5025950;28;20049;-79
2021/09/08 04:39:59;;;;;;;3.45;3.08;;;;;;;;;;5056873;28;20490;-79
2021/09/08 04:42:26;;;;;;;8.68;3.13;;;;;;;;;;5024443;28;20494;-79
2021/09/08 04:44:52;;;;;;;3.22;3.08;;;;;;;;;;5024969;28;20474;-79
2021/09/08 04:47:19;;;;;;;3.00;2.88;;;;;;;;;;5023457;28;20409;-79
2021/09/08 04:49:45;;;;;;;3.67;3.58;;;;;;;;;;5025353;28;20103;-79
2021/09/08 04:52:12;;;;;;;2.80;2.70;;;;;;;;;;5045309;28;20038;-79
2021/09/08 04:54:38;;;;;;;3.08;2.85;;;;;;;;;;5022249;28;20433;-79
2021/09/08 04:57:05;;;;;;;3.65;3.38;;;;;;;;;;5048107;28;20053;-79
2021/09/08 04:59:32;;;;;;;4.13;3.83;;;;;;;;;;5026433;28;20037;-79
2021/09/08 05:01:58;;;;;;;4.18;3.22;;;;;;;;;;5008518;28;20088;-79
2021/09/08 05:04:25;;;;;;;2.88;2.67;;;;;;;;;;5018943;28;20037;-79
2021/09/08 05:06:52;;;;;;;3.83;3.58;;;;;;;;;;5019539;28;20042;-79
2021/09/08 05:09:19;;;;;;;3.78;3.53;;;;;;;;;;5017659;28;20037;-79
2021/09/08 05:11:45;;;;;;;3.85;3.53;;;;;;;;;;5026016;28;20176;-79
2021/09/08 05:14:12;;;;;;;3.00;2.60;;;;;;;;;;5024790;28;20029;-78
2021/09/08 05:16:38;;;;;;;2.72;2.63;;;;;;;;;;5019748;28;20441;-78
2021/09/08 05:19:05;;;;;;;2.67;2.58;;;;;;;;;;5028007;28;20041;-81
2021/09/08 05:21:32;;;;;;;3.40;3.30;;;;;;;;;;5030179;28;20041;-81
2021/09/08 05:23:59;;;;;;;3.38;3.13;;;;;;;;;;5031894;28;20053;-81
2021/09/08 05:26:26;;;;;;;6.57;3.63;;;;;;;;;;5046243;28;20037;-81
2021/09/08 05:28:53;;;;;;;7.35;4.22;;;;;;;;;;5028498;28;20125;-81
2021/09/08 05:31:20;;;;;;;4.25;3.50;;;;;;;;;;5033124;28;20037;-80
2021/09/08 05:33:46;;;;;;;3.47;3.28;;;;;;;;;;5032380;28;20568;-80
2021/09/08 05:36:15;;;;;;;3.88;3.70;;;;;;;;;;5031798;28;20037;-80
2021/09/08 05:38:42;;;;;;;3.67;3.47;;;;;;;;;;5027604;28;20042;-80
2021/09/08 05:41:10;;;;;;;3.17;3.08;;;;;;;;;;5061693;28;20042;-80
2021/09/08 05:43:37;;;;;;;3.10;2.90;;;;;;;;;;5046049;28;20048;-80
2021/09/08 05:46:04;;;;;;;2.60;2.50;;;;;;;;;;5029098;28;20041;-80
2021/09/08 05:48:32;;;;;;;3.55;3.38;;;;;;;;;;5032751;28;20049;-80
2021/09/08 05:50:59;;;;;;;3.50;3.35;;;;;;;;;;5028083;28;20045;-80
2021/09/08 05:53:26;;;;;;;3.50;3.40;;;;;;;;;;5020065;28;20037;-80
2021/09/08 05:55:55;;;;;;;4.72;4.55;;;;;;;;;;5063082;28;20045;-80
2021/09/08 05:58:22;;;;;;;3.22;3.13;;;;;;;;;;5030550;28;20037;-81
2021/09/08 06:00:48;;;;;;;4.35;4.07;;;;;;;;;;5044916;28;20097;-81
2021/09/08 06:03:15;;;;;;;3.55;3.28;;;;;;;;;;5046237;28;20320;-81
2021/09/08 06:05:42;;;;;;;2.90;2.80;;;;;;;;;;5031711;28;20029;-81
2021/09/08 06:08:09;;;;;;;3.17;3.08;;;;;;;;;;5030799;28;20042;-81
2021/09/08 06:10:35;;;;;;;3.15;3.00;;;;;;;;;;5031062;28;20041;-81
2021/09/08 06:13:02;;;;;;;3.80;3.60;;;;;;;;;;5031484;28;20437;-81
2021/09/08 06:15:29;;;;;;;3.10;3.00;;;;;;;;;;5030807;28;20493;-81
2021/09/08 06:17:56;;;;;;;3.15;3.05;;;;;;;;;;5031264;28;20037;-81
2021/09/08 06:20:23;;;;;;;2.83;2.72;;;;;;;;;;5029666;28;20073;-81
2021/09/08 06:22:49;;;;;;;3.53;3.38;;;;;;;;;;5031011;28;20092;-81
2021/09/08 06:25:16;;;;;;;3.25;3.08;;;;;;;;;;5063764;28;20080;-81
2021/09/08 06:27:43;;;;;;;2.70;2.50;;;;;;;;;;5032213;28;20087;-81
2021/09/08 06:30:09;;;;;;;3.88;3.67;;;;;;;;;;5028799;28;20034;-81
2021/09/08 06:32:37;;;;;;;3.47;3.30;;;;;;;;;;5033236;28;20065;-81
2021/09/08 06:35:04;;;;;;;2.53;2.42;;;;;;;;;;5030430;28;20046;-81
2021/09/08 06:37:31;;;;;;;3.97;3.65;;;;;;;;;;5029383;28;20053;-81
2021/09/08 06:39:58;;;;;;;3.25;3.15;;;;;;;;;;5028031;28;20049;-81
2021/09/08 06:42:25;;;;;;;3.92;3.67;;;;;;;;;;5030653;28;20049;-81
2021/09/08 06:44:54;;;;;;;3.42;3.15;;;;;;;;;;5031681;28;20047;-81
2021/09/08 06:47:21;;;;;;;3.28;2.78;;;;;;;;;;5028857;28;20370;-81
2021/09/08 06:49:49;;;;;;;4.10;2.38;;;;;;;;;;5023641;28;20112;-81
2021/09/08 06:52:15;;;;;;;6.82;3.90;;;;;;;;;;5030676;28;20033;-81
2021/09/08 06:54:42;;;;;;;3.30;2.95;;;;;;;;;;5062410;28;20513;-81
2021/09/08 06:57:12;;;;;;;7.22;3.17;;;;;;;;;;5031542;28;20501;-81
2021/09/08 06:59:40;;;;;;;4.15;3.60;;;;;;;;;;5030766;28;20048;-80
2021/09/08 07:02:08;;;;;;;3.63;3.33;;;;;;;;;;5031208;28;20505;-81
2021/09/08 07:04:35;;;;;;;4.60;3.78;;;;;;;;;;5029975;28;20048;-81
2021/09/08 07:07:02;;;;;;;3.33;2.50;;;;;;;;;;5029554;28;20041;-81
2021/09/08 07:09:30;;;;;;;2.95;2.80;;;;;;;;;;5029053;28;20176;-81
2021/09/08 07:11:56;;;;;;;7.72;2.83;;;;;;;;;;5060542;28;20037;-81
2021/09/08 07:14:23;;;;;;;3.13;2.80;;;;;;;;;;5027653;28;20595;-81
2021/09/08 07:16:50;;;;;;;7.20;2.72;;;;;;;;;;5031096;28;20481;-81
2021/09/08 07:19:16;;;;;;;4.30;2.75;;;;;;;;;;5024786;28;20047;-81
2021/09/08 07:21:43;;;;;;;3.55;3.20;;;;;;;;;;5030493;28;20030;-81
2021/09/08 07:24:09;;;;;;;7.28;2.67;;;;;;;;;;5062011;28;20095;-81
2021/09/08 07:26:42;;;;;;;7.45;3.20;;;;;;;;;;5028589;28;20048;-81
2021/09/08 07:29:09;;;;;;;2.65;2.55;;;;;;;;;;5030879;28;20048;-81
2021/09/08 07:31:35;;;;;;;5.97;2.63;;;;;;;;;;5029236;28;20033;-81
2021/09/08 07:34:02;;;;;;;6.03;2.78;;;;;;;;;;5022504;28;20033;-81
2021/09/08 07:36:29;;;;;;;3.38;2.70;;;;;;;;;;5058012;28;20030;-81
2021/09/08 07:38:56;;;;;;;2.63;2.42;;;;;;;;;;5021594;28;20087;-81
2021/09/08 07:41:22;;;;;;;3.20;2.75;;;;;;;;;;5012026;28;20033;-81
2021/09/08 07:43:49;;;;;;;10.75;3.25;;;;;;;;;;5029016;28;20045;-81
2021/09/08 07:46:16;;;;;;;3.70;2.65;;;;;;;;;;5041728;28;20513;-81
2021/09/08 07:48:43;;;;;;;6.88;2.53;;;;;;;;;;5031734;28;20125;-81
2021/09/08 07:51:09;;;;;;;4.22;2.97;;;;;;;;;;5060328;28;20064;-81
2021/09/08 07:53:36;;;;;;;5.78;2.92;;;;;;;;;;5016530;28;20527;-81
2021/09/08 07:56:03;;;;;;;4.18;2.60;;;;;;;;;;5059183;28;20033;-81
2021/09/08 07:58:29;;;;;;;8.18;3.10;;;;;;;;;;5029498;28;20029;-81
2021/09/08 08:00:57;;;;;;;4.25;2.85;;;;;;;;;;5031652;28;20465;-81
2021/09/08 08:03:24;;;;;;;3.30;2.45;;;;;;;;;;5028433;28;20038;-81
2021/09/08 08:05:51;;;;;;;3.33;3.13;;;;;;;;;;5029475;28;20420;-81
2021/09/08 08:08:18;;;;;;;2.25;2.22;;;;;;;;;;5029954;28;20033;-81
2021/09/08 08:10:45;;;;;;;3.40;1.75;;;;;;;;;;5029681;28;20398;-81
2021/09/08 08:13:14;;;;;;;2.92;2.17;;;;;;;;;;5046027;28;20045;-81
2021/09/08 08:15:41;;;;;;;3.03;2.88;;;;;;;;;;5029293;28;20555;-81
2021/09/08 08:18:08;;;;;;;2.67;2.47;;;;;;;;;;5027815;28;20044;-81
2021/09/08 08:20:34;;;;;;;2.53;2.42;;;;;;;;;;5028530;28;20076;-81
2021/09/08 08:23:01;;;;;;;3.10;2.25;;;;;;;;;;5030384;28;20548;-81
2021/09/08 08:25:28;;;;;;;7.68;2.28;;;;;;;;;;5029658;28;20045;-81
2021/09/08 08:27:56;;;;;;;9.20;2.00;;;;;;;;;;5027035;28;20049;-81
2021/09/08 08:30:22;;;;;;;2.78;1.88;;;;;;;;;;5028418;28;20096;-81
2021/09/08 08:32:49;;;;;;;3.15;1.67;;;;;;;;;;5031357;28;20164;-81
2021/09/08 08:35:16;;;;;;;2.22;2.03;;;;;;;;;;5027918;28;20037;-81
2021/09/08 08:37:46;;;;;;;2.30;2.00;;;;;;;;;;5029980;28;20042;-81
2021/09/08 08:40:12;;;;;;;1.95;1.67;;;;;;;;;;5027917;28;20050;-81
2021/09/08 08:42:39;;;;;;;2.97;1.35;;;;;;;;;;5029046;28;20468;-81
2021/09/08 08:45:11;;;;;;;1.38;1.30;;;;;;;;;;5058693;28;20128;-81
2021/09/08 08:47:37;;;;;;;1.38;1.38;;;;;;;;;;5060060;28;20041;-81
2021/09/08 08:50:05;;;;;;;2.10;1.70;;;;;;;;;;5025247;28;20433;-81
2021/09/08 08:52:32;;;;;;;2.28;1.75;;;;;;;;;;5041664;28;20043;-81
2021/09/08 08:54:59;;;;;;;2.78;1.60;;;;;;;;;;5018474;28;20029;-81
2021/09/08 08:57:27;;;;;;;1.70;1.60;;;;;;;;;;5015307;28;20045;-81
2021/09/08 08:59:55;;;;;;;1.63;1.52;;;;;;;;;;5029390;28;20044;-81
2021/09/08 09:02:26;;;;;;;1.30;1.20;;;;;;;;;;5013725;28;20045;-81
2021/09/08 09:04:55;;;;;;;1.48;1.40;;;;;;;;;;5033525;28;20042;-81
2021/09/08 09:07:25;;;;;;;6.32;1.40;;;;;;;;;;5062473;28;20049;-81
2021/09/08 09:09:54;;;;;;;1.55;1.45;;;;;;;;;;5011682;28;20469;-81
2021/09/08 09:12:27;;;;;;;2.10;1.20;;;;;;;;;;5028820;28;20044;-81
2021/09/08 09:15:00;;;;;;;2.97;1.27;;;;;;;;;;5046709;28;20041;-81
2021/09/08 09:17:28;;;;;;;2.22;2.10;;;;;;;;;;5032342;28;20433;-81
2021/09/08 09:19:55;;;;;;;2.88;1.30;;;;;;;;;;5059392;28;20041;-81
2021/09/08 09:22:33;;;;;;;2.15;1.00;;;;;;;;;;5031631;28;20092;-81
2021/09/08 09:25:00;;;;;;;1.10;1.10;;;;;;;;;;5031214;28;20136;-81
2021/09/08 09:27:26;;;;;;;1.10;1.10;;;;;;;;;;5031457;28;20072;-81
2021/09/08 09:30:01;;;;;;;2.33;1.00;;;;;;;;;;5048046;28;20037;-81
2021/09/08 09:32:41;;;;;;;1.20;1.10;;;;;;;;;;5030986;28;20072;-81
2021/09/08 09:35:09;;;;;;;1.30;1.20;;;;;;;;;;5062702;28;20432;-81
2021/09/08 09:37:45;;;;;;;2.78;0.95;;;;;;;;;;5063693;28;20033;-81
2021/09/08 09:40:12;;;;;;;1.05;1.00;;;;;;;;;;5030660;28;20045;-81
2021/09/08 09:42:39;;;;;;;1.70;0.90;;;;;;;;;;5031324;28;20052;-81
2021/09/08 09:45:08;;;;;;;3.30;0.90;;;;;;;;;;5031474;28;20380;-81
2021/09/08 09:47:37;;;;;;;1.50;0.90;;;;;;;;;;5029889;28;20503;-81
2021/09/08 09:50:06;;;;;;;2.25;0.90;;;;;;;;;;5029609;28;20140;-81
2021/09/08 09:52:33;;;;;;;0.90;0.90;;;;;;;;;;5042648;28;20041;-81
2021/09/08 09:55:01;;;;;;;1.17;0.90;;;;;;;;;;5062120;28;20056;-81
2021/09/08 09:57:29;;;;;;;0.80;0.80;;;;;;;;;;5030551;28;20083;-81
2021/09/08 09:59:57;;;;;;;5.38;0.90;;;;;;;;;;5046413;28;20045;-81
2021/09/08 10:02:24;;;;;;;1.80;1.15;;;;;;;;;;5032576;28;20030;-81
2021/09/08 10:04:51;;;;;;;0.93;0.93;;;;;;;;;;5027262;28;20030;-81
2021/09/08 10:07:19;;;;;;;1.98;0.85;;;;;;;;;;5028934;28;20494;-82
2021/09/08 10:09:48;;;;;;;0.90;0.90;;;;;;;;;;5031153;28;20404;-82
2021/09/08 10:12:15;;;;;;;0.95;0.95;;;;;;;;;;5024196;28;20379;-82
2021/09/08 10:14:44;;;;;;;0.88;0.88;;;;;;;;;;5030910;28;20095;-82
2021/09/08 10:17:11;;;;;;;0.90;0.90;;;;;;;;;;5031642;28;20033;-82
2021/09/08 10:19:39;;;;;;;1.38;0.90;;;;;;;;;;5036109;28;20109;-82
2021/09/08 10:22:07;;;;;;;0.93;0.80;;;;;;;;;;5062957;28;20041;-82
2021/09/08 10:24:34;;;;;;;3.80;0.80;;;;;;;;;;5030498;28;20087;-82
2021/09/08 10:27:01;;;;;;;0.90;0.90;;;;;;;;;;5029285;28;20076;-82
2021/09/08 10:29:28;;;;;;;0.82;0.82;;;;;;;;;;5028446;28;20033;-82
2021/09/08 10:31:57;;;;;;;1.08;0.90;;;;;;;;;;5061710;28;20057;-82
2021/09/08 10:34:24;;;;;;;0.90;0.90;;;;;;;;;;5028786;28;20045;-82
2021/09/08 10:36:51;;;;;;;1.55;0.90;;;;;;;;;;5028326;28;20172;-82
2021/09/08 10:39:19;;;;;;;0.90;0.90;;;;;;;;;;5052551;28;20046;-81
2021/09/08 10:41:46;;;;;;;1.00;0.80;;;;;;;;;;5025423;28;20060;-81
2021/09/08 10:44:15;;;;;;;0.80;0.80;;;;;;;;;;5030686;28;20037;-81
2021/09/08 10:46:59;;;;;;;1.02;0.80;;;;;;;;;;5038635;28;20432;-81
2021/09/08 10:49:38;;;;;;;0.82;0.82;;;;;;;;;;5025774;28;20084;-81
2021/09/08 10:52:06;;;;;;;0.80;0.80;;;;;;;;;;5021390;28;20063;-81
2021/09/08 10:54:53;;;;;;;1.25;0.80;;;;;;;;;;5027445;28;20044;-81
2021/09/08 10:57:38;;;;;;;1.52;0.90;;;;;;;;;;5027023;28;20029;-81
2021/09/08 11:00:05;;;;;;;1.80;0.80;;;;;;;;;;5029576;28;20056;-81
2021/09/08 11:02:38;;;;;;;0.70;0.70;;;;;;;;;;5026979;28;20478;-81
2021/09/08 11:05:05;;;;;;;0.70;0.70;;;;;;;;;;5027395;28;20093;-81
2021/09/08 11:07:32;;;;;;;0.90;0.80;;;;;;;;;;5027577;28;20413;-81
2021/09/08 11:09:59;;;;;;;0.80;0.80;;;;;;;;;;5030615;28;20092;-81
2021/09/08 11:12:44;;;;;;;0.80;0.80;;;;;;;;;;5035401;28;20047;-81
2021/09/08 11:15:12;;;;;;;1.85;0.80;;;;;;;;;;5045484;28;20042;-81
2021/09/08 11:17:39;;;;;;;0.70;0.70;;;;;;;;;;5036977;28;20037;-81
2021/09/08 11:20:21;;;;;;;0.70;0.70;;;;;;;;;;5033745;28;20041;-81
2021/09/08 11:23:00;;;;;;;1.10;0.70;;;;;;;;;;5050720;28;20041;-81
2021/09/08 11:25:28;;;;;;;0.85;0.85;;;;;;;;;;5034855;28;20065;-81
2021/09/08 11:27:55;;;;;;;4.00;0.90;;;;;;;;;;5050954;28;20141;-81
2021/09/08 11:30:22;;;;;;;1.60;0.70;;;;;;;;;;5047440;28;20490;-82
2021/09/08 11:32:55;;;;;;;0.70;0.70;;;;;;;;;;5036896;28;20064;-82
2021/09/08 11:35:41;;;;;;;1.95;0.70;;;;;;;;;;5030741;28;20026;-79
2021/09/08 11:38:10;;;;;;;4.47;0.70;;;;;;;;;;5027334;28;20033;-79
2021/09/08 11:40:39;;;;;;;1.05;0.80;;;;;;;;;;5062474;28;20100;-79
2021/09/08 11:43:06;;;;;;;0.80;0.80;;;;;;;;;;5029846;28;20106;-79
2021/09/08 11:45:33;;;;;;;0.70;0.70;;;;;;;;;;5031562;28;20040;-79
2021/09/08 11:48:00;;;;;;;0.65;0.65;;;;;;;;;;5037585;28;20051;-79
2021/09/08 11:50:27;;;;;;;0.60;0.60;;;;;;;;;;5060024;28;20128;-79
2021/09/08 11:52:55;;;;;;;0.82;0.70;;;;;;;;;;5030345;28;20042;-79
2021/09/08 11:55:26;;;;;;;1.90;0.70;;;;;;;;;;5061158;28;20108;-79
2021/09/08 11:57:53;;;;;;;2.03;1.02;;;;;;;;;;5030617;28;20099;-79
2021/09/08 12:00:20;;;;;;;0.70;0.70;;;;;;;;;;5030204;28;20052;-79
2021/09/08 12:02:47;;;;;;;0.77;0.70;;;;;;;;;;5027841;28;20034;-80
2021/09/08 12:05:21;;;;;;;2.33;1.00;;;;;;;;;;5029506;28;20037;-80
2021/09/08 12:07:57;;;;;;;1.50;0.73;;;;;;;;;;5031259;28;20041;-80
2021/09/08 12:10:35;;;;;;;1.73;0.80;;;;;;;;;;5028623;28;20428;-80
2021/09/08 12:13:01;;;;;;;1.65;0.70;;;;;;;;;;5020458;28;20037;-80
2021/09/08 12:15:33;;;;;;;1.85;0.70;;;;;;;;;;5024814;28;20091;-80
2021/09/08 12:18:01;;;;;;;;;;;;;;;;;;5055804;28;20050;-80
2021/09/08 12:20:28;;;;;;;2.50;0.80;;;;;;;;;;5041642;28;19925;-80
2021/09/08 12:22:55;;;;;;;0.70;0.70;;;;;;;;;;5029148;28;20104;-80
2021/09/08 12:25:22;;;;;;;1.30;0.70;;;;;;;;;;5027168;28;20076;-80
2021/09/08 12:27:53;;;;;;;0.70;0.70;;;;;;;;;;5025464;28;20088;-80
2021/09/08 12:30:20;;;;;;;0.73;0.73;;;;;;;;;;5053450;28;20597;-80
2021/09/08 12:32:48;;;;;;;0.60;0.60;;;;;;;;;;5032865;28;20056;-79
2021/09/08 12:35:34;;;;;;;1.25;0.90;;;;;;;;;;5032430;28;20099;-79
2021/09/08 12:38:18;;;;;;;0.80;0.80;;;;;;;;;;5021244;28;20041;-80
2021/09/08 12:41:03;;;;;;;0.90;0.70;;;;;;;;;;5046762;28;20042;-79
2021/09/08 12:43:30;;;;;;;2.78;1.00;;;;;;;;;;5029316;28;20026;-78
2021/09/08 12:45:57;;;;;;;0.70;0.70;;;;;;;;;;5032038;28;20689;-78
2021/09/08 12:48:25;;;;;;;0.60;0.60;;;;;;;;;;5032697;28;20124;-78
2021/09/08 12:50:52;;;;;;;0.70;0.70;;;;;;;;;;5029739;28;20052;-78
2021/09/08 12:53:18;;;;;;;0.60;0.60;;;;;;;;;;5030182;28;20482;-78
2021/09/08 12:55:45;;;;;;;0.68;0.68;;;;;;;;;;5029322;28;20041;-78
2021/09/08 12:58:12;;;;;;;0.70;0.70;;;;;;;;;;5033739;28;20100;-78
2021/09/08 13:00:39;;;;;;;2.13;0.70;;;;;;;;;;5032564;28;20041;-78
2021/09/08 13:03:06;;;;;;;0.90;0.90;;;;;;;;;;5061809;28;20108;-78
2021/09/08 13:05:34;;;;;;;0.70;0.70;;;;;;;;;;5030263;28;20644;-79
2021/09/08 13:08:01;;;;;;;0.70;0.70;;;;;;;;;;5027825;28;20432;-79
2021/09/08 13:10:27;;;;;;;0.60;0.60;;;;;;;;;;5014478;28;20088;-78
2021/09/08 13:12:55;;;;;;;1.48;0.70;;;;;;;;;;5032207;28;20755;-78
2021/09/08 13:15:21;;;;;;;0.60;0.60;;;;;;;;;;5031534;28;20107;-79
2021/09/08 13:17:50;;;;;;;1.48;0.70;;;;;;;;;;5021488;28;20033;-79
2021/09/08 13:20:17;;;;;;;0.85;0.70;;;;;;;;;;5031068;28;20061;-79
2021/09/08 13:22:44;;;;;;;1.20;1.10;;;;;;;;;;5030745;28;20053;-79
2021/09/08 13:25:11;;;;;;;1.13;0.70;;;;;;;;;;5030040;28;20065;-79
2021/09/08 13:27:37;;;;;;;0.70;0.70;;;;;;;;;;5030281;28;20102;-79
2021/09/08 13:30:05;;;;;;;0.70;0.70;;;;;;;;;;5031703;28;20041;-79
2021/09/08 13:32:32;;;;;;;0.70;0.70;;;;;;;;;;5043120;28;20068;-79
2021/09/08 13:34:59;;;;;;;0.68;0.65;;;;;;;;;;5026593;28;20038;-79
2021/09/08 13:37:25;;;;;;;0.70;0.70;;;;;;;;;;5062588;28;20042;-79
2021/09/08 13:39:52;;;;;;;0.70;0.70;;;;;;;;;;5027404;28;20053;-79
2021/09/08 13:42:19;;;;;;;0.75;0.70;;;;;;;;;;5031856;28;20100;-79
2021/09/08 13:44:47;;;;;;;0.70;0.70;;;;;;;;;;5025047;28;20478;-79
2021/09/08 13:47:14;;;;;;;0.70;0.70;;;;;;;;;;5022015;28;20436;-79
2021/09/08 13:49:40;;;;;;;0.70;0.70;;;;;;;;;;5031664;28;20034;-79
2021/09/08 13:52:07;;;;;;;1.48;0.90;;;;;;;;;;5029609;28;20041;-79
2021/09/08 13:54:34;;;;;;;0.70;0.70;;;;;;;;;;5013727;28;20096;-78
2021/09/08 13:57:01;;;;;;;1.98;0.70;;;;;;;;;;5025562;28;20049;-78
2021/09/08 13:59:28;;;;;;;1.33;0.70;;;;;;;;;;5035148;28;20095;-79
2021/09/08 14:01:56;;;;;;;0.70;0.65;;;;;;;;;;5018045;28;20044;-78
2021/09/08 14:04:43;;;;;;;0.70;0.70;;;;;;;;;;5029076;28;20105;-78
2021/09/08 14:07:09;;;;;;;0.60;0.60;;;;;;;;;;5020506;28;20049;-78
2021/09/08 14:09:36;;;;;;;3.15;0.70;;;;;;;;;;5045310;28;20048;-78
2021/09/08 14:12:03;;;;;;;0.68;0.68;;;;;;;;;;5029737;28;20041;-78
2021/09/08 14:14:30;;;;;;;2.05;0.70;;;;;;;;;;5030131;28;20072;-78
2021/09/08 14:16:56;;;;;;;0.80;0.80;;;;;;;;;;5030132;28;20083;-78
2021/09/08 14:19:23;;;;;;;1.00;0.60;;;;;;;;;;5060598;28;20474;-78
2021/09/08 14:21:50;;;;;;;0.70;0.70;;;;;;;;;;5031077;28;20068;-78
2021/09/08 14:24:17;;;;;;;1.80;0.60;;;;;;;;;;5030369;28;20068;-78
2021/09/08 14:26:44;;;;;;;1.55;0.70;;;;;;;;;;5013884;28;20034;-78
2021/09/08 14:29:12;;;;;;;0.70;0.70;;;;;;;;;;5025950;28;20034;-78
2021/09/08 14:31:39;;;;;;;1.67;0.60;;;;;;;;;;5017865;28;20147;-78
2021/09/08 14:34:07;;;;;;;0.70;0.70;;;;;;;;;;5029852;28;20523;-78
2021/09/08 14:36:33;;;;;;;1.95;0.70;;;;;;;;;;5058088;28;20115;-78
2021/09/08 14:39:00;;;;;;;0.90;0.70;;;;;;;;;;5025811;28;20049;-78
2021/09/08 14:41:27;;;;;;;0.70;0.70;;;;;;;;;;5021659;28;20046;-78
2021/09/08 14:43:53;;;;;;;1.58;0.70;;;;;;;;;;5033285;28;20107;-78
2021/09/08 14:46:20;;;;;;;1.50;0.70;;;;;;;;;;5029320;28;20056;-78